Airfield :
LOGIN :

Register | Disclaimer

   EN    FR    IT 

 










Legend :    VFR   Marginal VFR   IFR   Intensive IFR   Very Intensive IFR
Visi :
Ceiling :
>= 8 km
>= 3000ft
5 to 8 km
1000 to 3000 ft
1500m to 5 km
500 to 1000 ft
800 to 1500m
200 to 500 ft
< 800m
< 200 ft
Symbols :   Thunderstorms  Fog  Heavy snow  Heavy precipitations  Wind > 20 kt
SIGMETs :     Misc.  Thunderstorms  Icing  Turbulence  Mountain Waves  Volcanic Ashes






- Airport Elevation : 36 ft
- IATA code : LTQ


LFAT - Le Touquet

CURRENT METAR :
  • 262030Z AUTO 18009KT 150V220 9999 OVC023/// ///TCU 09/07 Q1010

EXPIRED METARs :
  • 262000Z AUTO 17009KT 140V200 9999 DZ BKN027/// BKN032/// BKN038/// 09/07 Q1010
  • 261930Z AUTO 17009KT 9999 SCT034/// BKN046/// OVC060/// ///TCU 09/07 Q1010
  • 261900Z AUTO 17009KT 140V200 8000 -RA BKN035/// OVC050/// 09/07 Q1010
  • 261830Z AUTO 17008KT 9999 FEW029/// SCT039/// OVC060/// 08/07 Q1010
  • 261800Z AUTO 18008KT 140V200 9999 -RA SCT030/// BKN038/// OVC056/// 09/06 Q1011 BECMG 20015G25KT RA BKN007 OVC015

TAF TAF LFAT
Valid from the 26 at 15:00 until the 27 at 00:00 UTC


261400Z 2615/2624 20010KT 9999 BKN020
TEMPO 2615/2617 BKN007
BECMG 2617/2619 20015G25KT RA BKN007 OVC015
ATIS : +33 3 21 06 62 84



MET'MAP, your aeronautical weather chart ! - Copyright ORBIFLY December 2007 - Disclaimer

ORBIFLY MET'MAP TEAM :

Programming & Development : Alexandra Zaïnal
Concept & original design : Baudouin d'Aumeries
Assistance for programming : Marc-Olivier Méhu
Technical & hardware support : Manuel Goepfert

Contact : metmap@orbifly.com




SOURCES & CREDITS :

   NOAA